Time;durP1;ratioP1;P1;durP2;ratioP2;P2;SDS_P1;SDS_P2;PMS_P1;PMS_P2;Temp;Humidity;BMP_temperature;BMP_pressure;BME280_temperature;BME280_humidity;BME280_pressure;Samples;Min_cycle;Max_cycle;Signal;HPM_P1;HPM_P2
2022/12/20 00:00:54;;;;;;;19.57;12.20;;;;;;;-5.89;75.65;102521.12;1728921;81;20987;-72
2022/12/20 00:03:22;;;;;;;20.80;13.48;;;;;;;-5.84;75.72;102515.67;1717898;81;21045;-74
2022/12/20 00:05:48;;;;;;;22.17;14.25;;;;;;;-5.81;75.73;102513.16;1730134;83;21006;-70
2022/12/20 00:08:15;;;;;;;27.75;15.88;;;;;;;-5.81;75.71;102506.30;1722075;82;21868;-71
2022/12/20 00:10:44;;;;;;;24.40;15.65;;;;;;;-5.81;75.71;102502.44;1725489;81;21018;-78
2022/12/20 00:13:11;;;;;;;27.17;17.55;;;;;;;-5.83;75.68;102497.69;1701584;83;20978;-71
2022/12/20 00:15:37;;;;;;;31.48;18.77;;;;;;;-5.82;75.70;102500.70;1726935;83;21478;-71
2022/12/20 00:18:05;;;;;;;38.88;23.87;;;;;;;-5.84;75.69;102497.23;1729981;83;21397;-71
2022/12/20 00:20:32;;;;;;;40.48;24.67;;;;;;;-5.85;75.69;102500.65;1727183;81;21843;-71
2022/12/20 00:22:59;;;;;;;42.90;25.00;;;;;;;-5.89;75.71;102492.39;1713722;83;20995;-71
2022/12/20 00:25:26;;;;;;;40.20;23.75;;;;;;;-5.92;75.71;102485.94;1732745;81;21033;-71
2022/12/20 00:27:53;;;;;;;42.15;23.77;;;;;;;-5.93;75.73;102484.63;1729964;82;21066;-71
2022/12/20 00:30:20;;;;;;;41.45;24.45;;;;;;;-5.93;75.71;102476.91;1730734;82;21010;-71
2022/12/20 00:32:47;;;;;;;44.27;27.07;;;;;;;-5.95;75.65;102476.01;1730975;81;21920;-71
2022/12/20 00:35:14;;;;;;;46.53;26.60;;;;;;;-5.98;75.65;102479.78;1730097;82;20944;-72
2022/12/20 00:37:40;;;;;;;39.33;24.57;;;;;;;-5.99;75.66;102479.33;1701904;83;21101;-71
2022/12/20 00:40:08;;;;;;;40.78;25.88;;;;;;;-6.02;75.68;102475.41;1714149;82;21074;-71
2022/12/20 00:42:35;;;;;;;44.53;27.22;;;;;;;-6.04;75.70;102476.67;1707799;83;20987;-70
2022/12/20 00:45:04;;;;;;;47.53;27.07;;;;;;;-6.06;75.70;102470.21;1704231;83;21251;-70
2022/12/20 00:47:31;;;;;;;43.52;26.55;;;;;;;-6.09;75.70;102475.69;1709051;84;21069;-71
2022/12/20 00:49:57;;;;;;;38.30;23.52;;;;;;;-6.11;75.66;102469.22;1712084;83;21023;-70
2022/12/20 00:52:24;;;;;;;38.67;23.02;;;;;;;-6.12;75.67;102470.06;1716589;81;21032;-71
2022/12/20 00:54:50;;;;;;;36.55;23.05;;;;;;;-6.13;75.70;102464.89;1716745;83;21026;-71
2022/12/20 00:57:17;;;;;;;32.58;20.52;;;;;;;-6.14;75.73;102454.16;1720855;82;22572;-71
2022/12/20 00:59:44;;;;;;;32.65;19.30;;;;;;;-6.14;75.79;102454.16;1717329;83;21007;-71
2022/12/20 01:02:10;;;;;;;32.80;19.60;;;;;;;-6.14;75.85;102452.45;1716505;82;21497;-72
2022/12/20 01:04:37;;;;;;;33.10;20.27;;;;;;;-6.11;75.93;102451.22;1698720;82;21078;-72
2022/12/20 01:07:04;;;;;;;31.55;18.25;;;;;;;-6.08;76.00;102445.27;1722572;83;20931;-71
2022/12/20 01:09:31;;;;;;;30.68;19.85;;;;;;;-6.07;76.04;102441.88;1715710;83;21823;-71
2022/12/20 01:11:58;;;;;;;29.67;19.00;;;;;;;-6.05;76.07;102438.92;1720501;83;21039;-70
2022/12/20 01:14:24;;;;;;;28.92;18.52;;;;;;;-6.02;76.10;102444.13;1723519;82;21066;-71
2022/12/20 01:16:51;;;;;;;29.35;19.32;;;;;;;-6.02;76.16;102436.41;1722173;83;21046;-71
2022/12/20 01:19:18;;;;;;;28.55;18.50;;;;;;;-6.01;76.22;102436.85;1680129;84;20997;-71
2022/12/20 01:21:45;;;;;;;29.98;18.30;;;;;;;-6.00;76.26;102429.58;1659970;85;21951;-71
2022/12/20 01:24:16;;;;;;;29.00;17.90;;;;;;;-5.99;76.29;102431.31;1684204;85;20903;-71
2022/12/20 01:26:43;;;;;;;26.33;17.45;;;;;;;-5.98;76.34;102430.51;1683552;85;21433;-71
2022/12/20 01:29:10;;;;;;;27.15;19.02;;;;;;;-5.98;76.34;102422.79;1668954;83;21572;-71
2022/12/20 01:31:37;;;;;;;29.37;18.07;;;;;;;-6.00;76.30;102420.58;1680669;83;21507;-71
2022/12/20 01:34:03;;;;;;;26.48;18.05;;;;;;;-6.01;76.30;102425.27;1662248;84;21931;-71
2022/12/20 01:36:33;;;;;;;27.95;18.30;;;;;;;-6.03;76.29;102420.94;1623750;86;21034;-71
2022/12/20 01:39:03;;;;;;;32.20;19.50;;;;;;;-6.04;76.26;102411.48;1657473;85;21030;-71
2022/12/20 01:41:32;;;;;;;26.45;17.65;;;;;;;-6.08;76.28;102416.97;1666604;84;21022;-71
2022/12/20 01:44:05;;;;;;;26.17;18.12;;;;;;;-6.09;76.31;102407.09;1677337;84;21566;-71
2022/12/20 01:46:34;;;;;;;26.45;17.98;;;;;;;-6.10;76.32;102404.50;1670067;85;21839;-71
2022/12/20 01:49:12;;;;;;;29.15;18.17;;;;;;;-6.12;76.35;102397.17;1668531;85;21066;-71
2022/12/20 01:51:43;;;;;;;25.65;16.82;;;;;;;-6.13;76.36;102401.88;1674372;83;21026;-71
2022/12/20 01:54:16;;;;;;;26.52;15.95;;;;;;;-6.14;76.39;102389.84;1682365;85;20991;-71
2022/12/20 01:56:44;;;;;;;24.55;15.98;;;;;;;-6.16;76.46;102382.11;1665157;83;21448;-75
2022/12/20 01:59:12;;;;;;;22.52;14.53;;;;;;;-6.14;76.54;102380.84;1656301;85;21842;-71
2022/12/20 02:01:41;;;;;;;19.90;13.90;;;;;;;-6.12;76.61;102373.60;1692099;83;20995;-71
2022/12/20 02:04:08;;;;;;;22.05;13.50;;;;;;;-6.08;76.67;102373.23;1711415;83;21032;-71
2022/12/20 02:06:36;;;;;;;21.27;14.07;;;;;;;-6.06;76.71;102370.30;1707573;82;20976;-71
2022/12/20 02:09:03;;;;;;;18.80;12.90;;;;;;;-6.03;76.74;102363.92;1700631;82;21117;-71
2022/12/20 02:12:19;;;;;;;19.73;12.75;;;;;;;-6.01;76.74;102364.81;1705229;83;21806;-71
2022/12/20 02:15:14;;;;;;;21.05;12.82;;;;;;;-6.01;76.73;102356.23;1715493;83;20948;-71
2022/12/20 02:18:14;;;;;;;18.73;12.05;;;;;;;-6.00;76.75;102357.55;1695189;83;21078;-71
2022/12/20 02:21:19;;;;;;;16.27;11.68;;;;;;;-5.99;76.75;102348.13;1707098;83;21051;-71
2022/12/20 02:24:12;;;;;;;18.00;11.25;;;;;;;-5.98;76.76;102349.47;1665506;83;20952;-70
2022/12/20 02:27:19;;;;;;;17.52;11.22;;;;;;;-5.98;76.82;102339.17;1678321;83;21903;-70
2022/12/20 02:30:07;;;;;;;15.32;10.72;;;;;;;-5.94;76.89;102337.09;1619228;86;21344;-71
2022/12/20 02:32:39;;;;;;;14.83;10.00;;;;;;;-5.93;76.90;102332.39;1621658;86;21166;-70
2022/12/20 02:35:08;;;;;;;14.90;9.90;;;;;;;-5.91;76.95;102335.86;1665484;83;21569;-70
2022/12/20 02:37:55;;;;;;;14.68;10.30;;;;;;;-5.89;76.96;102332.86;1702776;81;21090;-73
2022/12/20 02:40:34;;;;;;;14.07;9.40;;;;;;;-5.86;76.97;102326.92;1713580;82;21869;-70
2022/12/20 02:45:14;;;;;;;13.15;9.25;;;;;;;-5.85;76.98;102328.23;1692629;82;21078;-71
2022/12/20 02:45:33;;;;;;;13.32;9.50;;;;;;;-5.84;76.96;102321.38;1673826;84;21020;-70
2022/12/20 02:48:06;;;;;;;12.33;9.18;;;;;;;-5.84;76.98;102304.23;1695892;84;21546;-71
2022/12/20 02:50:38;;;;;;;12.15;8.63;;;;;;;-5.80;77.02;102306.02;1689502;84;21423;-70
2022/12/20 02:53:05;;;;;;;12.58;8.88;;;;;;;-5.77;77.01;102306.52;1678394;84;22567;-71
2022/12/20 02:55:57;;;;;;;10.53;8.18;;;;;;;-5.76;76.99;102301.39;1682316;84;21031;-70
2022/12/20 02:58:32;;;;;;;11.43;8.20;;;;;;;-5.73;76.98;102302.28;1698603;83;21550;-73
2022/12/20 03:01:03;;;;;;;13.38;8.83;;;;;;;-5.70;76.97;102303.19;1679182;84;21000;-70
2022/12/20 03:03:32;;;;;;;13.25;8.85;;;;;;;-5.68;76.90;102300.67;1698785;84;21590;-75
2022/12/20 03:05:59;;;;;;;18.02;8.95;;;;;;;-5.67;76.82;102294.68;1686864;83;22972;-70
2022/12/20 03:08:26;;;;;;;12.03;8.40;;;;;;;-5.69;76.76;102290.80;1656624;84;21074;-70
2022/12/20 03:10:53;;;;;;;12.40;8.28;;;;;;;-5.73;76.66;102292.84;1673468;84;21039;-70
2022/12/20 03:13:22;;;;;;;12.20;8.15;;;;;;;-5.74;76.63;102296.27;1672921;84;21101;-70
2022/12/20 03:15:53;;;;;;;12.10;8.08;;;;;;;-5.77;76.59;102289.36;1693154;83;20992;-70
2022/12/20 03:18:20;;;;;;;12.45;8.68;;;;;;;-5.79;76.55;102287.19;1683714;84;21810;-70
2022/12/20 03:20:47;;;;;;;11.03;8.15;;;;;;;-5.81;76.50;102292.70;1687638;84;21043;-70
2022/12/20 03:23:14;;;;;;;11.08;8.30;;;;;;;-5.85;76.45;102287.06;1690652;84;20981;-70
2022/12/20 03:25:40;;;;;;;13.30;8.45;;;;;;;-5.88;76.42;102289.59;1698557;83;21036;-70
2022/12/20 03:28:09;;;;;;;12.70;8.85;;;;;;;-5.91;76.37;102284.82;1678954;84;21063;-70
2022/12/20 03:30:36;;;;;;;12.05;8.75;;;;;;;-5.95;76.40;102280.05;1684730;84;22569;-70
2022/12/20 03:33:03;;;;;;;11.50;8.60;;;;;;;-5.97;76.39;102277.87;1675699;83;22014;-69
2022/12/20 03:35:29;;;;;;;12.80;8.98;;;;;;;-5.99;76.36;102276.95;1686509;84;21040;-70
2022/12/20 03:37:56;;;;;;;11.20;8.48;;;;;;;-6.02;76.36;102267.03;1699453;84;20941;-70
2022/12/20 03:40:23;;;;;;;14.58;9.53;;;;;;;-6.05;76.34;102265.28;1683602;84;21126;-69
2022/12/20 03:42:49;;;;;;;12.10;8.68;;;;;;;-6.05;76.40;102262.70;1701876;83;21790;-72
2022/12/20 03:45:16;;;;;;;14.05;9.40;;;;;;;-6.07;76.39;102252.81;1679561;84;21016;-69
2022/12/20 03:47:43;;;;;;;12.05;8.50;;;;;;;-6.08;76.42;102258.77;1650966;86;21019;-70
2022/12/20 03:50:11;;;;;;;11.48;8.58;;;;;;;-6.09;76.42;102259.19;1676931;83;21012;-69
2022/12/20 03:52:38;;;;;;;11.65;8.75;;;;;;;-6.09;76.44;102251.89;1696841;83;21524;-70
2022/12/20 03:55:06;;;;;;;12.43;8.85;;;;;;;-6.11;76.42;102238.14;1716042;83;21570;-70
2022/12/20 03:57:35;;;;;;;14.95;9.20;;;;;;;-6.12;76.45;102237.70;1703375;83;20996;-70
2022/12/20 04:00:03;;;;;;;12.43;8.93;;;;;;;-6.14;76.42;102229.09;1693469;82;21038;-71
2022/12/20 04:02:30;;;;;;;11.88;8.30;;;;;;;-6.16;76.42;102229.08;1700820;82;21016;-69
2022/12/20 04:04:57;;;;;;;12.28;9.18;;;;;;;-6.16;76.41;102225.63;1701584;83;21045;-70
2022/12/20 04:07:23;;;;;;;12.28;8.98;;;;;;;-6.17;76.41;102218.34;1686230;83;22606;-70
2022/12/20 04:09:50;;;;;;;13.22;9.63;;;;;;;-6.19;76.44;102217.84;1714983;83;21487;-69
2022/12/20 04:12:17;;;;;;;12.10;8.73;;;;;;;-6.18;76.44;102211.86;1703605;82;21462;-71
2022/12/20 04:14:44;;;;;;;12.63;8.85;;;;;;;-6.17;76.47;102211.05;1710053;83;21001;-71
2022/12/20 04:17:11;;;;;;;12.88;9.35;;;;;;;-6.17;76.46;102207.19;1720481;83;21000;-70
2022/12/20 04:19:38;;;;;;;12.25;9.33;;;;;;;-6.17;76.45;102203.33;1705374;83;21806;-70
2022/12/20 04:22:05;;;;;;;13.13;9.43;;;;;;;-6.18;76.45;102192.14;1705101;82;20988;-70
2022/12/20 04:24:34;;;;;;;12.85;9.33;;;;;;;-6.17;76.45;102193.91;1702991;83;21024;-69
2022/12/20 04:27:02;;;;;;;13.03;9.65;;;;;;;-6.16;76.46;102196.06;1705857;83;21106;-69
2022/12/20 04:29:29;;;;;;;13.62;9.95;;;;;;;-6.17;76.46;102189.19;1709250;83;21047;-69
2022/12/20 04:31:56;;;;;;;12.68;9.80;;;;;;;-6.16;76.47;102196.06;1717236;83;21808;-69
2022/12/20 04:34:23;;;;;;;13.08;9.30;;;;;;;-6.15;76.48;102192.64;1691700;81;20940;-69
2022/12/20 04:36:50;;;;;;;12.95;9.50;;;;;;;-6.13;76.50;102191.83;1725228;81;21049;-69
2022/12/20 04:39:18;;;;;;;13.13;9.95;;;;;;;-6.12;76.49;102196.55;1713620;83;21051;-69
2022/12/20 04:41:52;;;;;;;11.55;8.78;;;;;;;-6.11;76.50;102198.28;1710361;81;20952;-69
2022/12/20 04:44:19;;;;;;;12.90;9.65;;;;;;;-6.10;76.55;102193.58;1718932;83;21971;-69
2022/12/20 04:46:45;;;;;;;15.03;10.25;;;;;;;-6.09;76.57;102187.59;1726680;82;21016;-70
2022/12/20 04:49:12;;;;;;;14.45;10.10;;;;;;;-6.07;76.57;102185.94;1726714;81;21011;-70
2022/12/20 04:51:41;;;;;;;14.18;9.55;;;;;;;-6.04;76.60;102188.98;1720258;83;21004;-70
2022/12/20 04:54:07;;;;;;;13.83;9.65;;;;;;;-6.00;76.60;102195.89;1729265;82;21102;-70
2022/12/20 04:56:37;;;;;;;12.15;8.48;;;;;;;-5.98;76.61;102200.64;1722852;81;21804;-69
2022/12/20 04:59:06;;;;;;;11.93;8.95;;;;;;;-5.95;76.60;102208.02;1720639;82;20988;-70
2022/12/20 05:01:33;;;;;;;11.48;8.93;;;;;;;-5.92;76.60;102197.77;1730933;81;21023;-70
2022/12/20 05:03:59;;;;;;;11.48;8.23;;;;;;;-5.90;76.58;102194.76;1726401;83;21065;-70
2022/12/20 05:06:28;;;;;;;12.13;8.38;;;;;;;-5.89;76.53;102192.63;1726415;81;21514;-70
2022/12/20 05:08:55;;;;;;;12.35;8.75;;;;;;;-5.85;76.48;102193.56;1723455;83;21821;-70
2022/12/20 05:11:22;;;;;;;12.70;8.58;;;;;;;-5.85;76.43;102196.14;1729639;83;20961;-71
2022/12/20 05:13:49;;;;;;;12.90;8.85;;;;;;;-5.85;76.40;102188.42;1681090;83;22331;-71
2022/12/20 05:16:17;;;;;;;13.18;8.68;;;;;;;-5.84;76.35;102190.15;1694196;83;21846;-71
2022/12/20 05:18:43;;;;;;;11.78;8.60;;;;;;;-5.84;76.29;102193.59;1657756;84;21396;-71
2022/12/20 05:26:44;;;;;;;11.28;8.03;;;;;;;-5.83;76.06;102176.44;1696805;84;21060;-70
2022/12/20 05:29:12;;;;;;;11.85;8.23;;;;;;;-5.84;76.00;102170.42;1724342;82;21463;-70
2022/12/20 05:31:39;;;;;;;12.75;8.70;;;;;;;-5.84;75.95;102165.28;1701446;83;21123;-70
2022/12/20 05:34:06;;;;;;;14.65;9.75;;;;;;;-5.85;75.87;102166.55;1719690;82;21845;-76
2022/12/20 05:36:33;;;;;;;12.00;8.10;;;;;;;-5.83;75.81;102166.14;1725084;82;20941;-70
2022/12/20 05:39:01;;;;;;;13.10;8.83;;;;;;;-5.83;75.74;102163.57;1657943;86;21096;-70
2022/12/20 05:41:28;;;;;;;11.78;8.08;;;;;;;-5.82;75.68;102160.16;1652003;84;21066;-70
2022/12/20 05:43:55;;;;;;;11.65;8.48;;;;;;;-5.82;75.61;102152.02;1702837;82;20961;-71
2022/12/20 05:46:22;;;;;;;11.65;8.10;;;;;;;-5.82;75.54;102146.86;1700178;82;21841;-70
2022/12/20 05:48:50;;;;;;;13.38;8.25;;;;;;;-5.80;75.41;102140.45;1692661;82;21408;-71
2022/12/20 05:51:18;;;;;;;11.40;8.43;;;;;;;-5.80;75.38;102142.60;1675293;83;20995;-70
2022/12/20 05:53:47;;;;;;;12.23;8.63;;;;;;;-5.78;75.28;102138.37;1702524;83;20960;-71
2022/12/20 05:56:14;;;;;;;12.10;8.70;;;;;;;-5.75;75.20;102142.69;1710311;83;21000;-70
2022/12/20 05:58:40;;;;;;;10.98;7.70;;;;;;;-5.74;75.11;102134.13;1707985;82;21900;-71
2022/12/20 06:01:09;;;;;;;11.18;8.00;;;;;;;-5.72;75.00;102132.86;1706783;83;21079;-70
2022/12/20 06:03:39;;;;;;;11.35;8.40;;;;;;;-5.71;74.93;102132.02;1710350;82;21378;-70
2022/12/20 06:06:07;;;;;;;11.93;8.25;;;;;;;-5.71;74.87;102126.86;1702735;83;21499;-70
2022/12/20 06:08:34;;;;;;;11.88;8.15;;;;;;;-5.71;74.79;102120.43;1702544;83;20972;-70
2022/12/20 06:11:05;;;;;;;11.57;8.45;;;;;;;-5.72;74.73;102114.42;1704026;83;21336;-71
2022/12/20 06:13:34;;;;;;;11.20;8.05;;;;;;;-5.70;74.69;102117.87;1710503;83;21065;-70
2022/12/20 06:16:01;;;;;;;10.30;7.37;;;;;;;-5.67;74.64;102115.80;1702970;83;21451;-70
2022/12/20 06:18:29;;;;;;;11.33;7.72;;;;;;;-5.64;74.58;102109.39;1705392;82;21087;-71
2022/12/20 06:20:57;;;;;;;11.88;7.53;;;;;;;-5.60;74.57;102109.44;1703443;82;21062;-71
2022/12/20 06:23:24;;;;;;;11.10;7.67;;;;;;;-5.54;74.52;102124.13;1693334;83;21928;-71
2022/12/20 06:26:08;;;;;;;;;;;;;;;-5.50;74.50;102116.48;1700627;83;21544;-72
2022/12/20 06:28:41;;;;;;;11.40;7.08;;;;;;;-5.43;74.49;102115.27;1701207;83;20145;-70
2022/12/20 06:31:09;;;;;;;10.95;7.33;;;;;;;-5.39;74.36;102111.48;1712471;83;21115;-71
2022/12/20 06:33:41;;;;;;;10.93;7.37;;;;;;;-5.34;74.28;102108.53;1703593;82;22356;-71
2022/12/20 06:36:08;;;;;;;10.18;6.95;;;;;;;-5.27;74.25;102107.78;1697524;83;22324;-72
2022/12/20 06:38:35;;;;;;;11.25;7.42;;;;;;;-5.20;74.18;102102.30;1708803;83;20878;-75
2022/12/20 06:41:02;;;;;;;9.95;7.22;;;;;;;-5.16;73.95;102099.32;1704028;82;21007;-71
2022/12/20 06:43:29;;;;;;;12.37;8.40;;;;;;;-5.11;73.92;102102.84;1688522;83;21008;-71
2022/12/20 06:45:55;;;;;;;10.98;7.40;;;;;;;-5.05;73.82;102091.30;1652861;86;21025;-71
2022/12/20 06:48:22;;;;;;;12.30;8.08;;;;;;;-4.99;73.70;102095.25;1687132;85;22543;-71
2022/12/20 06:50:49;;;;;;;13.38;8.28;;;;;;;-4.92;73.54;102093.19;1654149;85;21123;-71
2022/12/20 06:53:19;;;;;;;13.03;8.30;;;;;;;-4.84;73.48;102088.10;1683519;83;21028;-71
2022/12/20 06:55:51;;;;;;;12.20;7.10;;;;;;;-4.80;73.21;102080.86;1694543;83;21036;-71
2022/12/20 06:58:18;;;;;;;11.90;7.40;;;;;;;-4.76;72.85;102079.61;1688588;83;21779;-71
2022/12/20 07:00:47;;;;;;;10.45;7.00;;;;;;;-4.74;72.61;102076.61;1699047;83;21817;-70
2022/12/20 07:03:13;;;;;;;10.32;6.47;;;;;;;-4.71;72.30;102080.54;1689208;82;21072;-70
2022/12/20 07:05:40;;;;;;;9.88;6.35;;;;;;;-4.67;72.06;102078.84;1696594;84;21024;-70
2022/12/20 07:08:07;;;;;;;11.95;7.28;;;;;;;-4.66;71.83;102076.70;1698996;82;20973;-75
2022/12/20 07:10:35;;;;;;;10.18;7.00;;;;;;;-4.62;71.48;102070.75;1691529;82;21537;-74
2022/12/20 07:13:02;;;;;;;11.63;7.45;;;;;;;-4.61;71.02;102065.60;1701389;84;21881;-74
2022/12/20 07:15:29;;;;;;;12.43;7.20;;;;;;;-4.57;70.99;102063.91;1700960;83;21088;-74
2022/12/20 07:17:55;;;;;;;14.87;8.13;;;;;;;-4.53;70.71;102064.82;1698447;83;21599;-73
2022/12/20 07:20:21;;;;;;;13.03;7.70;;;;;;;-4.50;70.58;102048.08;1682857;83;21021;-73
2022/12/20 07:22:48;;;;;;;11.73;8.25;;;;;;;-4.44;70.55;102038.69;1684516;83;21083;-73
2022/12/20 07:25:15;;;;;;;13.75;8.83;;;;;;;-4.35;70.33;102035.30;1657918;85;22499;-73
2022/12/20 07:27:41;;;;;;;13.25;8.85;;;;;;;-4.24;70.05;102025.09;1678635;84;21005;-73
2022/12/20 07:30:08;;;;;;;13.90;8.58;;;;;;;-4.13;69.94;102021.73;1657319;85;21482;-73
2022/12/20 07:32:35;;;;;;;11.25;7.35;;;;;;;-4.02;69.11;102013.20;1718611;82;21068;-72
2022/12/20 07:35:01;;;;;;;14.23;7.58;;;;;;;-3.94;68.23;102021.44;1651039;84;21014;-76
2022/12/20 07:37:29;;;;;;;12.82;7.50;;;;;;;-3.84;68.11;102013.32;1677067;85;22338;-80
2022/12/20 07:39:55;;;;;;;14.28;7.85;;;;;;;-3.72;68.03;102012.09;1682457;84;20961;-74
2022/12/20 07:42:22;;;;;;;12.35;7.28;;;;;;;-3.60;67.53;101999.66;1654520;85;21685;-71
2022/12/20 07:44:50;;;;;;;12.55;7.20;;;;;;;-3.49;67.45;101994.11;1680013;82;21015;-76
2022/12/20 07:47:16;;;;;;;12.05;6.90;;;;;;;-3.42;66.36;101991.14;1707852;84;20980;-73
2022/12/20 07:49:43;;;;;;;11.38;6.72;;;;;;;-3.34;66.12;101999.78;1704033;84;21853;-73
2022/12/20 07:52:10;;;;;;;13.43;6.78;;;;;;;-3.28;65.78;101999.78;1679543;84;21004;-71
2022/12/20 07:54:44;;;;;;;10.75;6.42;;;;;;;-3.23;65.71;101997.67;1704587;84;21019;-73
2022/12/20 07:57:18;;;;;;;12.20;7.12;;;;;;;-3.15;65.86;102008.03;1707711;84;21561;-75
2022/12/20 07:59:48;;;;;;;11.38;6.22;;;;;;;-3.11;65.74;102004.59;1679805;85;20964;-74
2022/12/20 08:02:19;;;;;;;13.38;6.67;;;;;;;-3.03;65.57;101989.97;1678663;84;21954;-73
2022/12/20 08:04:46;;;;;;;12.13;7.05;;;;;;;-2.98;65.52;101977.07;1699818;84;20993;-74
2022/12/20 08:07:12;;;;;;;10.23;6.17;;;;;;;-2.92;65.20;101985.67;1699501;83;20984;-74
2022/12/20 08:09:41;;;;;;;11.20;6.42;;;;;;;-2.87;65.04;101977.08;1701807;84;21072;-75
2022/12/20 08:12:07;;;;;;;13.13;6.70;;;;;;;-2.82;64.92;101968.89;1702560;84;21579;-72
2022/12/20 08:14:36;;;;;;;10.30;6.25;;;;;;;-2.78;64.92;101973.22;1697182;84;21834;-74
2022/12/20 08:17:03;;;;;;;12.70;6.00;;;;;;;-2.74;64.61;101977.52;1705704;83;21153;-74
2022/12/20 08:19:29;;;;;;;11.35;6.62;;;;;;;-2.71;64.67;101966.73;1687819;84;21004;-75
2022/12/20 08:21:55;;;;;;;10.40;6.20;;;;;;;-2.67;64.56;101967.19;1699615;83;20997;-74
2022/12/20 08:24:22;;;;;;;14.05;7.17;;;;;;;-2.63;64.50;101962.86;1705704;84;20945;-77
2022/12/20 08:26:49;;;;;;;10.63;6.67;;;;;;;-2.57;64.45;101959.00;1695265;82;21922;-78
2022/12/20 08:29:15;;;;;;;14.63;7.75;;;;;;;-2.53;64.38;101952.95;1699907;83;20957;-72
2022/12/20 08:31:42;;;;;;;19.23;7.87;;;;;;;-2.47;64.45;101948.22;1692579;83;21053;-74
2022/12/20 08:34:08;;;;;;;15.28;7.70;;;;;;;-2.42;64.36;101941.30;1683429;84;21048;-73
2022/12/20 08:36:35;;;;;;;15.08;7.80;;;;;;;-2.38;64.35;101935.27;1686248;85;21063;-72
2022/12/20 08:39:03;;;;;;;12.60;7.90;;;;;;;-2.32;64.49;101938.72;1674377;85;21819;-72
2022/12/20 08:41:30;;;;;;;11.93;7.83;;;;;;;-2.26;64.55;101925.33;1665864;83;20950;-72
2022/12/20 08:43:57;;;;;;;14.68;8.70;;;;;;;-2.19;64.64;101936.11;1689186;84;20941;-73
2022/12/20 08:46:23;;;;;;;17.20;8.53;;;;;;;-2.15;64.43;101928.75;1690427;84;21014;-72
2022/12/20 08:48:51;;;;;;;15.03;8.73;;;;;;;-2.09;64.55;101923.57;1682497;84;21513;-74
2022/12/20 08:51:17;;;;;;;15.43;8.50;;;;;;;-2.03;64.18;101922.23;1654184;85;21794;-72
2022/12/20 08:53:44;;;;;;;16.45;9.18;;;;;;;-1.98;64.26;101914.04;1701486;84;21032;-73
2022/12/20 08:56:14;;;;;;;16.97;8.83;;;;;;;-1.93;64.01;101904.55;1668924;83;21022;-71
2022/12/20 08:58:41;;;;;;;17.92;9.43;;;;;;;-1.86;63.92;101903.63;1702147;84;21879;-72
2022/12/20 09:01:13;;;;;;;13.30;8.25;;;;;;;-1.82;63.80;101896.30;1691682;82;21039;-72
2022/12/20 09:03:40;;;;;;;21.70;8.95;;;;;;;-1.78;63.59;101888.06;1707686;82;21803;-71
2022/12/20 09:06:12;;;;;;;12.78;7.72;;;;;;;-1.74;63.66;101874.22;1707485;83;21021;-72
2022/12/20 09:08:38;;;;;;;12.50;8.10;;;;;;;-1.70;63.51;101869.91;1690927;83;21051;-72
2022/12/20 09:11:14;;;;;;;15.60;8.93;;;;;;;-1.64;63.39;101865.97;1705547;83;21529;-72
2022/12/20 09:13:41;;;;;;;15.20;8.15;;;;;;;-1.60;63.37;101856.89;1709266;84;20956;-73
2022/12/20 09:16:08;;;;;;;15.88;9.03;;;;;;;-1.54;63.39;101856.87;1708628;82;21786;-73
2022/12/20 09:18:34;;;;;;;13.78;7.95;;;;;;;-1.49;62.94;101849.05;1709147;84;20963;-73
2022/12/20 09:21:05;;;;;;;15.43;8.58;;;;;;;-1.40;62.77;101841.22;1686162;84;21033;-72
2022/12/20 09:23:32;;;;;;;13.75;7.87;;;;;;;-1.33;62.40;101832.55;1711238;82;21144;-72
2022/12/20 09:26:04;;;;;;;13.38;8.33;;;;;;;-1.23;62.11;101825.56;1706361;82;21063;-74
2022/12/20 09:28:31;;;;;;;15.88;8.55;;;;;;;-1.14;61.94;101818.15;1688169;85;21818;-73
2022/12/20 09:31:03;;;;;;;17.35;8.40;;;;;;;-1.04;61.54;101815.91;1687815;85;21051;-74
2022/12/20 09:33:31;;;;;;;14.45;7.62;;;;;;;-0.94;60.92;101808.47;1715219;81;21446;-74
2022/12/20 09:35:58;;;;;;;12.37;8.03;;;;;;;-0.82;60.89;101806.19;1716645;83;21016;-75
2022/12/20 09:38:24;;;;;;;13.03;7.72;;;;;;;-0.71;60.41;101800.02;1717550;82;21017;-74
2022/12/20 09:40:55;;;;;;;15.03;7.78;;;;;;;-0.61;60.46;101783.91;1697899;83;21977;-75
2022/12/20 09:43:23;;;;;;;13.47;7.93;;;;;;;-0.51;60.30;101779.47;1694312;82;21051;-76
2022/12/20 09:45:53;;;;;;;16.37;8.35;;;;;;;-0.42;60.05;101785.86;1718323;82;21714;-73
2022/12/20 09:48:36;;;;;;;13.22;8.20;;;;;;;-0.35;59.85;101778.43;1720816;82;21041;-74
2022/12/20 09:51:22;;;;;;;13.40;7.97;;;;;;;-0.28;59.12;101768.41;1722342;83;21628;-73
2022/12/20 09:54:19;;;;;;;17.73;7.80;;;;;;;-0.18;59.16;101760.06;1722175;82;22502;-74
2022/12/20 09:57:03;;;;;;;14.35;7.72;;;;;;;-0.10;58.35;101752.55;1716024;82;21075;-72
2022/12/20 09:59:34;;;;;;;13.20;7.00;;;;;;;-0.01;57.92;101740.74;1715041;83;21053;-74
2022/12/20 10:02:00;;;;;;;17.07;7.80;;;;;;;0.08;57.89;101750.15;1714063;82;20996;-74
2022/12/20 10:04:28;;;;;;;11.75;6.50;;;;;;;0.16;57.60;101740.95;1718750;83;21007;-71
2022/12/20 10:07:18;;;;;;;12.82;6.85;;;;;;;0.21;57.16;101743.06;1720667;82;21796;-73
2022/12/20 10:10:28;;;;;;;14.18;7.03;;;;;;;0.24;57.45;101734.77;1720153;83;21097;-72
2022/12/20 10:13:23;;;;;;;10.13;5.70;;;;;;;0.31;56.59;101732.94;1713831;82;21110;-73
2022/12/20 10:16:20;;;;;;;9.58;5.50;;;;;;;0.36;56.33;101727.22;1719731;83;21033;-72
2022/12/20 10:19:04;;;;;;;8.50;4.47;;;;;;;0.41;55.84;101721.97;1720601;82;20944;-72
2022/12/20 10:21:57;;;;;;;8.48;5.60;;;;;;;0.47;55.42;101725.30;1703957;83;21863;-74
2022/12/20 10:24:29;;;;;;;11.10;5.35;;;;;;;0.56;55.22;101726.45;1716825;82;21024;-72
2022/12/20 10:26:59;;;;;;;8.55;4.70;;;;;;;0.65;54.51;101726.74;1694861;83;21095;-74
2022/12/20 10:29:25;;;;;;;11.43;5.30;;;;;;;0.74;54.06;101721.83;1712561;82;21094;-75
2022/12/20 10:31:52;;;;;;;8.28;4.95;;;;;;;0.84;53.72;101712.54;1715323;82;21145;-78
2022/12/20 10:34:19;;;;;;;6.78;3.90;;;;;;;0.97;53.18;101698.89;1659796;83;21876;-77
2022/12/20 10:36:45;;;;;;;9.13;5.30;;;;;;;1.11;52.25;101702.52;1716367;82;21090;-80
2022/12/20 10:39:12;;;;;;;11.90;5.65;;;;;;;1.28;51.47;101695.24;1664598;82;21054;-77
2022/12/20 10:41:50;;;;;;;10.05;5.17;;;;;;;1.40;51.42;101678.52;1722882;81;21054;-75
2022/12/20 10:44:25;;;;;;;8.43;4.70;;;;;;;1.45;51.11;101685.80;1712318;81;21058;-76
2022/12/20 10:46:54;;;;;;;11.03;4.42;;;;;;;1.49;50.36;101682.23;1693997;83;21928;-76
2022/12/20 10:49:33;;;;;;;8.30;5.40;;;;;;;1.52;49.50;101669.58;1686557;82;21571;-74
2022/12/20 10:52:05;;;;;;;7.58;3.80;;;;;;;1.53;49.30;101670.84;1692855;82;21042;-71
2022/12/20 10:54:37;;;;;;;7.92;3.30;;;;;;;1.56;48.97;101662.99;1693447;82;21055;-75
2022/12/20 10:57:27;;;;;;;6.92;3.42;;;;;;;1.60;48.15;101652.91;1674381;82;21059;-74
2022/12/20 10:59:56;;;;;;;11.25;6.40;;;;;;;1.67;48.07;101658.40;1676712;84;21790;-76
2022/12/20 11:02:28;;;;;;;19.50;10.85;;;;;;;1.76;47.61;101651.28;1675494;84;21029;-76
2022/12/20 11:05:02;;;;;;;20.92;9.80;;;;;;;1.82;47.41;101645.91;1692898;83;21037;-72
2022/12/20 11:07:31;;;;;;;19.55;9.43;;;;;;;1.84;46.35;101642.40;1695583;84;21081;-72
2022/12/20 11:10:01;;;;;;;13.38;6.90;;;;;;;1.85;46.32;101640.65;1695087;84;21459;-73
2022/12/20 11:12:27;;;;;;;19.12;10.43;;;;;;;1.86;46.36;101618.91;1693569;83;21838;-74
2022/12/20 11:15:23;;;;;;;18.70;9.60;;;;;;;1.92;46.77;101630.47;1695420;83;21548;-74
2022/12/20 11:17:51;;;;;;;7.10;4.20;;;;;;;2.02;46.65;101617.63;1693435;84;21150;-72
2022/12/20 11:20:26;;;;;;;6.17;3.75;;;;;;;2.14;45.80;101599.56;1694730;83;21072;-73
2022/12/20 11:23:28;;;;;;;5.78;3.25;;;;;;;2.19;46.11;101595.92;1692546;82;21045;-72
2022/12/20 11:26:22;;;;;;;6.55;2.80;;;;;;;2.19;46.52;101588.56;1691504;84;21837;-71
2022/12/20 11:29:00;;;;;;;4.87;2.65;;;;;;;2.13;46.08;101581.77;1682890;83;21036;-72
2022/12/20 11:32:09;;;;;;;5.55;3.00;;;;;;;2.07;45.64;101574.09;1692329;83;21015;-71
2022/12/20 11:35:10;;;;;;;6.78;3.30;;;;;;;2.04;46.06;101583.75;1688945;83;21414;-68
2022/12/20 11:38:06;;;;;;;6.12;2.95;;;;;;;1.98;46.19;101568.66;1692157;83;20930;-69